Time;durP1;ratioP1;P1;durP2;ratioP2;P2;SDS_P1;SDS_P2;PMS_P1;PMS_P2;Temp;Humidity;BMP_temperature;BMP_pressure;BME280_temperature;BME280_humidity;BME280_pressure;Samples;Min_cycle;Max_cycle;Signal;HPM_P1;HPM_P2
2022/05/13 00:02:19;;;;;;;5.37;2.17;;;10.90;96.90;;;;;;5078617;28;21133;-78
2022/05/13 00:04:46;;;;;;;6.53;2.60;;;10.90;97.00;;;;;;5079464;28;20538;-79
2022/05/13 00:07:13;;;;;;;6.07;2.27;;;10.90;97.10;;;;;;5080534;28;20664;-79
2022/05/13 00:10:00;;;;;;;4.67;2.40;;;10.90;97.20;;;;;;5079979;28;20226;-79
2022/05/13 00:12:30;;;;;;;3.93;2.20;;;10.90;97.30;;;;;;5078616;28;21435;-79
2022/05/13 00:14:58;;;;;;;4.40;2.20;;;10.90;97.40;;;;;;5074167;28;20221;-79
2022/05/13 00:17:25;;;;;;;5.03;2.20;;;10.80;97.60;;;;;;5076762;28;20262;-79
2022/05/13 00:19:52;;;;;;;6.00;2.50;;;10.80;97.40;;;;;;5080464;28;20238;-79
2022/05/13 00:22:19;;;;;;;4.33;2.37;;;10.90;97.40;;;;;;5081037;28;20283;-79
2022/05/13 00:24:46;;;;;;;4.63;2.13;;;10.80;97.50;;;;;;5073623;28;20300;-79
2022/05/13 00:27:13;;;;;;;5.43;2.30;;;10.80;97.50;;;;;;5073147;28;20228;-79
2022/05/13 00:29:41;;;;;;;5.27;2.37;;;10.80;97.60;;;;;;5080567;28;21489;-79
2022/05/13 00:32:08;;;;;;;6.50;2.37;;;10.70;97.70;;;;;;5074546;28;20216;-79
2022/05/13 00:34:35;;;;;;;5.90;2.20;;;10.70;97.60;;;;;;5074105;28;20514;-78
2022/05/13 00:37:02;;;;;;;5.97;2.40;;;10.60;97.50;;;;;;5081927;28;20302;-79
2022/05/13 00:39:28;;;;;;;5.97;2.10;;;10.60;97.70;;;;;;5072790;28;20278;-78
2022/05/13 00:41:55;;;;;;;6.77;2.67;;;10.60;97.70;;;;;;5082002;28;20767;-79
2022/05/13 00:44:22;;;;;;;4.70;2.20;;;10.50;97.70;;;;;;5080942;28;20314;-79
2022/05/13 00:46:50;;;;;;;5.20;2.30;;;10.50;97.80;;;;;;5081723;28;20230;-79
2022/05/13 00:49:18;;;;;;;7.50;2.20;;;10.50;97.90;;;;;;5075776;28;20223;-79
2022/05/13 00:51:48;;;;;;;4.97;2.00;;;10.40;97.90;;;;;;5074334;28;20768;-78
2022/05/13 00:54:16;;;;;;;6.80;2.50;;;10.40;98.00;;;;;;5074121;28;20310;-79
2022/05/13 00:56:46;;;;;;;5.23;2.20;;;10.30;98.00;;;;;;5075676;28;20767;-78
2022/05/13 00:59:16;;;;;;;4.43;2.00;;;10.30;98.10;;;;;;5080748;28;20314;-79
2022/05/13 01:01:43;;;;;;;6.37;2.37;;;10.10;98.20;;;;;;5080061;28;20765;-78
2022/05/13 01:04:13;;;;;;;5.00;1.90;;;10.20;98.20;;;;;;5081836;28;20215;-78
2022/05/13 01:06:44;;;;;;;7.40;2.80;;;10.10;98.40;;;;;;5076852;28;20222;-78
2022/05/13 01:09:11;;;;;;;5.93;2.37;;;10.10;98.40;;;;;;5080934;28;20877;-79
2022/05/13 01:11:39;;;;;;;2.80;1.73;;;10.00;98.40;;;;;;5080193;28;20219;-78
2022/05/13 01:14:09;;;;;;;5.53;2.30;;;9.90;98.50;;;;;;5069897;28;20218;-79
2022/05/13 01:19:19;;;;;;;6.30;2.23;;;9.80;98.80;;;;;;5076681;28;20211;-77
2022/05/13 01:21:48;;;;;;;4.50;1.93;;;9.80;98.90;;;;;;5074306;28;20219;-78
2022/05/13 01:24:15;;;;;;;5.30;2.47;;;9.70;98.90;;;;;;5073705;28;20253;-78
2022/05/13 01:26:42;;;;;;;5.53;1.97;;;9.70;99.00;;;;;;5080597;28;20228;-78
2022/05/13 01:29:09;;;;;;;8.77;2.40;;;9.70;99.10;;;;;;5080959;28;20313;-78
2022/05/13 01:31:39;;;;;;;6.40;2.13;;;9.60;99.00;;;;;;5072593;28;21202;-79
2022/05/13 01:34:09;;;;;;;8.97;2.50;;;9.60;99.30;;;;;;5076557;28;20219;-78
2022/05/13 01:36:38;;;;;;;3.83;2.00;;;9.50;99.30;;;;;;5072799;28;20222;-79
2022/05/13 01:39:06;;;;;;;6.90;2.70;;;9.50;99.20;;;;;;5077634;28;20241;-79
2022/05/13 01:41:34;;;;;;;5.43;2.40;;;9.50;99.40;;;;;;5080265;28;20237;-79
2022/05/13 01:44:01;;;;;;;7.60;2.37;;;9.50;99.40;;;;;;5079427;28;21135;-78
2022/05/13 01:46:28;;;;;;;7.40;2.30;;;9.50;99.40;;;;;;5077918;28;20226;-78
2022/05/13 01:48:55;;;;;;;6.63;2.80;;;9.50;99.50;;;;;;5082252;28;20217;-78
2022/05/13 01:51:23;;;;;;;4.80;2.20;;;9.50;99.50;;;;;;5075863;28;20229;-78
2022/05/13 01:53:50;;;;;;;4.87;2.40;;;9.50;99.60;;;;;;5074257;28;20316;-78
2022/05/13 01:56:18;;;;;;;5.77;2.40;;;9.50;99.60;;;;;;5073679;28;20241;-78
2022/05/13 01:58:45;;;;;;;8.40;2.40;;;9.50;99.70;;;;;;5080862;28;21936;-79
2022/05/13 02:01:12;;;;;;;6.50;2.40;;;9.40;99.70;;;;;;5084687;28;20245;-78
2022/05/13 02:03:44;;;;;;;6.00;2.63;;;9.40;99.70;;;;;;5082276;28;20227;-79
2022/05/13 02:06:11;;;;;;;7.17;2.50;;;9.40;99.80;;;;;;5078267;28;20217;-79
2022/05/13 02:08:38;;;;;;;4.87;2.17;;;9.40;99.80;;;;;;5077488;28;20222;-79
2022/05/13 02:11:05;;;;;;;4.43;2.40;;;9.40;99.90;;;;;;5083040;28;20215;-79
2022/05/13 02:13:34;;;;;;;7.60;2.73;;;9.40;99.90;;;;;;5074471;28;20238;-79
2022/05/13 02:16:03;;;;;;;7.43;2.60;;;9.40;99.90;;;;;;5084203;28;20222;-79
2022/05/13 02:18:30;;;;;;;11.97;3.30;;;9.40;99.90;;;;;;5083869;28;20725;-78
2022/05/13 02:20:56;;;;;;;5.20;2.93;;;9.40;99.90;;;;;;5084599;28;20320;-78
2022/05/13 02:23:24;;;;;;;5.83;2.53;;;9.40;99.90;;;;;;5079869;28;20232;-78
2022/05/13 02:25:51;;;;;;;5.10;2.13;;;9.30;99.90;;;;;;5079453;28;20229;-78
2022/05/13 02:28:18;;;;;;;8.57;2.40;;;9.30;99.90;;;;;;5079254;28;20253;-79
2022/05/13 02:30:46;;;;;;;7.17;2.60;;;9.20;99.90;;;;;;5079971;28;20226;-78
2022/05/13 02:33:14;;;;;;;7.33;2.80;;;9.20;99.90;;;;;;5079956;28;20207;-79
2022/05/13 02:35:40;;;;;;;5.00;2.47;;;9.10;99.90;;;;;;5077110;28;20652;-78
2022/05/13 02:38:07;;;;;;;7.30;2.73;;;9.10;99.90;;;;;;5081563;28;20313;-79
2022/05/13 02:43:14;;;;;;;6.33;2.73;;;9.00;99.90;;;;;;5056413;28;20834;-79
2022/05/13 02:45:42;;;;;;;6.67;2.80;;;8.90;99.90;;;;;;5079538;28;20226;-79
2022/05/13 02:48:10;;;;;;;3.77;2.13;;;8.80;99.90;;;;;;5085758;28;20244;-80
2022/05/13 02:50:38;;;;;;;3.53;2.17;;;8.80;99.90;;;;;;5080202;28;20241;-80
2022/05/13 02:53:06;;;;;;;6.10;2.63;;;8.70;99.90;;;;;;5079211;28;20294;-80
2022/05/13 02:55:33;;;;;;;5.37;2.47;;;8.70;99.90;;;;;;5083002;28;20714;-80
2022/05/13 02:57:59;;;;;;;5.77;2.73;;;8.60;99.90;;;;;;5075965;28;20879;-79
2022/05/13 03:00:27;;;;;;;6.03;2.33;;;8.60;99.90;;;;;;5077349;28;20238;-80
2022/05/13 03:02:54;;;;;;;5.97;2.50;;;8.50;99.90;;;;;;5083081;28;20229;-80
2022/05/13 03:05:22;;;;;;;5.43;2.50;;;8.50;99.90;;;;;;5078338;28;20243;-80
2022/05/13 03:07:50;;;;;;;8.47;2.70;;;8.50;99.90;;;;;;5081816;28;20233;-80
2022/05/13 03:10:17;;;;;;;6.17;2.83;;;8.40;99.90;;;;;;5071728;28;20231;-79
2022/05/13 03:12:44;;;;;;;5.80;2.60;;;8.40;99.90;;;;;;5075674;28;20844;-79
2022/05/13 03:15:13;;;;;;;5.20;2.67;;;8.40;99.90;;;;;;5079598;28;20315;-80
2022/05/13 03:17:40;;;;;;;4.30;2.90;;;8.30;99.90;;;;;;5079816;28;20240;-80
2022/05/13 03:20:09;;;;;;;4.77;2.30;;;8.30;99.90;;;;;;5079482;28;20231;-80
2022/05/13 03:22:38;;;;;;;5.80;3.00;;;8.30;99.90;;;;;;5079280;28;20320;-79
2022/05/13 03:25:06;;;;;;;7.37;3.10;;;8.30;99.90;;;;;;5073449;28;20244;-79
2022/05/13 03:27:33;;;;;;;6.63;2.90;;;8.30;99.90;;;;;;5079687;28;20236;-79
2022/05/13 03:29:59;;;;;;;8.20;2.67;;;8.20;99.90;;;;;;5079962;28;20233;-79
2022/05/13 03:32:26;;;;;;;4.53;2.70;;;8.20;99.90;;;;;;5073983;28;20217;-79
2022/05/13 03:34:53;;;;;;;4.53;2.70;;;8.20;99.90;;;;;;5076678;28;20231;-79
2022/05/13 03:37:20;;;;;;;4.60;2.80;;;8.20;99.90;;;;;;5075966;28;20222;-79
2022/05/13 03:39:48;;;;;;;9.13;2.80;;;8.20;99.90;;;;;;5076055;28;20224;-78
2022/05/13 03:42:15;;;;;;;6.37;2.90;;;8.20;99.90;;;;;;5076098;28;20867;-79
2022/05/13 03:44:42;;;;;;;6.67;3.10;;;8.30;99.90;;;;;;5075207;28;20313;-79
2022/05/13 03:47:09;;;;;;;5.90;2.60;;;8.30;99.90;;;;;;5082317;28;20224;-79
2022/05/13 03:49:36;;;;;;;5.10;2.93;;;8.30;99.90;;;;;;5079294;28;20248;-78
2022/05/13 03:52:02;;;;;;;6.33;2.77;;;8.40;99.90;;;;;;5071291;28;20246;-78
2022/05/13 03:54:29;;;;;;;5.53;2.67;;;8.40;99.90;;;;;;5074848;28;20224;-79
2022/05/13 03:56:57;;;;;;;5.27;2.73;;;8.40;99.90;;;;;;5076210;28;20222;-80
2022/05/13 03:59:24;;;;;;;4.33;2.70;;;8.50;99.90;;;;;;5078032;28;20307;-80
2022/05/13 04:01:51;;;;;;;7.83;3.23;;;8.50;99.90;;;;;;5073925;28;20222;-79
2022/05/13 04:04:21;;;;;;;4.93;2.80;;;8.50;99.90;;;;;;5076825;28;20229;-76
2022/05/13 04:09:32;;;;;;;8.17;3.27;;;8.60;99.90;;;;;;5071581;28;20776;-78
2022/05/13 04:17:29;;;;;;;6.80;3.00;;;8.80;99.90;;;;;;5080793;28;20307;-78
2022/05/13 04:19:56;;;;;;;6.90;3.03;;;8.90;99.90;;;;;;5086099;28;20226;-77
2022/05/13 04:22:24;;;;;;;6.00;3.27;;;9.00;99.90;;;;;;5083389;28;20233;-78
2022/05/13 04:24:52;;;;;;;7.53;3.50;;;9.00;99.90;;;;;;5081705;28;20221;-78
2022/05/13 04:27:20;;;;;;;8.07;3.17;;;9.10;99.90;;;;;;5078393;28;20234;-78
2022/05/13 04:29:47;;;;;;;6.33;3.03;;;9.20;99.90;;;;;;5076857;28;20815;-78
2022/05/13 04:32:13;;;;;;;10.10;3.40;;;9.20;99.90;;;;;;5077800;28;20217;-78
2022/05/13 04:34:40;;;;;;;6.23;3.10;;;9.30;99.90;;;;;;5077113;28;20953;-78
2022/05/13 04:37:08;;;;;;;7.90;3.43;;;9.30;99.90;;;;;;5079865;28;20230;-78
2022/05/13 04:39:35;;;;;;;7.77;3.80;;;9.40;99.90;;;;;;5079927;28;20249;-78
2022/05/13 04:44:48;;;;;;;10.57;3.37;;;9.50;99.90;;;;;;5077959;28;20646;-78
2022/05/13 04:49:55;;;;;;;7.50;3.77;;;9.70;99.90;;;;;;5080326;28;20227;-78
2022/05/13 04:52:22;;;;;;;5.63;3.07;;;9.80;99.90;;;;;;5073996;28;20227;-77
2022/05/13 04:54:49;;;;;;;9.27;3.53;;;9.80;99.90;;;;;;5082099;28;20229;-79
2022/05/13 04:57:15;;;;;;;6.80;3.47;;;9.90;99.90;;;;;;5076311;28;20237;-76
2022/05/13 04:59:42;;;;;;;6.70;3.00;;;10.00;99.90;;;;;;5080437;28;20226;-80
2022/05/13 05:02:10;;;;;;;8.33;3.47;;;10.10;99.90;;;;;;5077686;28;20215;-79
2022/05/13 05:04:37;;;;;;;10.07;4.57;;;10.10;99.90;;;;;;5083316;28;20221;-79
2022/05/13 05:07:04;;;;;;;6.30;3.40;;;10.20;99.90;;;;;;5080900;28;20234;-80
2022/05/13 05:09:30;;;;;;;8.03;4.00;;;10.20;99.90;;;;;;5077533;28;20224;-78
2022/05/13 05:11:57;;;;;;;7.83;3.33;;;10.30;99.90;;;;;;5092416;28;20322;-79
2022/05/13 05:14:24;;;;;;;8.30;3.43;;;10.30;99.90;;;;;;5078917;28;20223;-79
2022/05/13 05:16:50;;;;;;;6.17;3.30;;;10.40;99.90;;;;;;5078810;28;20215;-79
2022/05/13 05:19:18;;;;;;;8.13;3.17;;;10.40;99.90;;;;;;5084488;28;20229;-79
2022/05/13 05:21:45;;;;;;;6.60;3.10;;;10.50;99.90;;;;;;5083352;28;20224;-79
2022/05/13 05:24:12;;;;;;;7.33;3.30;;;10.50;99.90;;;;;;5083211;28;20690;-79
2022/05/13 05:26:39;;;;;;;5.43;3.43;;;10.50;99.90;;;;;;5074932;28;20478;-79
2022/05/13 05:29:05;;;;;;;8.70;3.47;;;10.50;99.90;;;;;;5083307;28;20746;-79
2022/05/13 05:31:32;;;;;;;5.37;3.60;;;10.60;99.90;;;;;;5074346;28;20240;-77
2022/05/13 05:33:59;;;;;;;7.93;3.20;;;10.60;99.90;;;;;;5083065;28;20222;-79
2022/05/13 05:36:27;;;;;;;6.60;3.30;;;10.60;99.90;;;;;;5083586;28;20220;-79
2022/05/13 05:38:54;;;;;;;6.50;3.30;;;10.60;99.90;;;;;;5080675;28;20227;-79
2022/05/13 05:41:20;;;;;;;6.93;3.40;;;10.70;99.90;;;;;;5086621;28;20341;-78
2022/05/13 05:43:47;;;;;;;6.90;3.10;;;10.70;99.90;;;;;;5086320;28;20234;-78
2022/05/13 05:46:14;;;;;;;6.03;3.03;;;10.70;99.90;;;;;;5087996;28;20738;-79
2022/05/13 05:48:40;;;;;;;5.47;3.30;;;10.70;99.90;;;;;;5087737;28;20224;-78
2022/05/13 05:51:07;;;;;;;6.40;3.37;;;10.70;99.90;;;;;;5083867;28;20229;-79
2022/05/13 05:59:04;;;;;;;9.13;3.43;;;10.80;99.90;;;;;;5086179;28;20236;-79
2022/05/13 06:01:31;;;;;;;7.83;3.50;;;10.80;99.90;;;;;;5085951;28;20225;-78
2022/05/13 06:03:58;;;;;;;5.97;3.03;;;10.80;99.90;;;;;;5082123;28;20329;-78
2022/05/13 06:06:25;;;;;;;7.47;3.17;;;10.80;99.90;;;;;;5085809;28;20234;-78
2022/05/13 06:08:55;;;;;;;6.47;3.47;;;10.80;99.90;;;;;;5078441;28;20235;-78
2022/05/13 06:11:23;;;;;;;7.57;2.97;;;10.80;99.90;;;;;;5087471;28;20342;-77
2022/05/13 06:13:51;;;;;;;8.93;3.50;;;10.80;99.90;;;;;;5085236;28;20226;-78
2022/05/13 06:16:18;;;;;;;6.03;3.00;;;10.80;99.90;;;;;;5085932;28;20598;-77
2022/05/13 06:18:45;;;;;;;6.67;3.50;;;10.90;99.90;;;;;;5085441;28;20218;-79
2022/05/13 06:21:12;;;;;;;6.77;3.87;;;10.90;99.90;;;;;;5085439;28;20679;-78
2022/05/13 06:23:39;;;;;;;8.67;3.20;;;11.00;99.90;;;;;;5085531;28;20711;-77
2022/05/13 06:26:07;;;;;;;11.43;3.17;;;11.00;99.90;;;;;;5088554;28;20222;-78
2022/05/13 06:28:35;;;;;;;7.87;3.43;;;11.00;99.90;;;;;;5087506;28;20239;-79
2022/05/13 06:31:01;;;;;;;9.67;3.60;;;11.00;99.90;;;;;;5087145;28;20249;-79
2022/05/13 06:33:29;;;;;;;6.37;3.07;;;11.10;99.90;;;;;;5080587;28;20226;-79
2022/05/13 06:35:55;;;;;;;6.73;3.10;;;11.00;99.90;;;;;;5088196;28;20874;-78
2022/05/13 06:38:25;;;;;;;7.70;3.07;;;11.10;99.90;;;;;;5084570;28;20320;-78
2022/05/13 06:40:53;;;;;;;6.53;3.10;;;11.10;99.90;;;;;;5085381;28;20238;-79
2022/05/13 06:43:22;;;;;;;6.43;3.20;;;11.10;99.90;;;;;;5083077;28;20223;-77
2022/05/13 06:45:49;;;;;;;5.93;2.90;;;11.20;99.90;;;;;;5080541;28;20228;-78
2022/05/13 06:48:16;;;;;;;4.37;2.70;;;11.20;99.90;;;;;;5088099;28;20226;-78
2022/05/13 06:50:43;;;;;;;6.87;2.97;;;11.30;99.90;;;;;;5087673;28;20233;-77
2022/05/13 06:53:11;;;;;;;4.70;2.83;;;11.30;99.90;;;;;;5080861;28;20620;-79
2022/05/13 06:55:39;;;;;;;9.90;3.00;;;11.40;99.90;;;;;;5078937;28;20727;-79
2022/05/13 06:58:06;;;;;;;4.33;2.60;;;11.50;99.80;;;;;;5087407;28;20568;-78
2022/05/13 07:00:34;;;;;;;4.37;2.50;;;11.40;99.70;;;;;;5082821;28;20241;-78
2022/05/13 07:03:01;;;;;;;8.10;2.90;;;11.50;99.80;;;;;;5086568;28;20225;-78
2022/05/13 07:05:28;;;;;;;6.07;2.70;;;11.50;99.70;;;;;;5086662;28;20231;-79
2022/05/13 07:07:55;;;;;;;5.57;2.90;;;11.60;99.70;;;;;;5082529;28;20329;-79
2022/05/13 07:10:22;;;;;;;5.60;2.90;;;11.60;99.70;;;;;;5083547;28;20229;-78
2022/05/13 07:12:48;;;;;;;6.20;3.17;;;11.70;99.70;;;;;;5085565;28;20234;-77
2022/05/13 07:15:17;;;;;;;6.07;2.63;;;11.70;99.50;;;;;;5074251;28;20723;-77
2022/05/13 07:17:46;;;;;;;10.23;3.07;;;11.80;99.40;;;;;;5085644;28;20467;-79
2022/05/13 07:20:13;;;;;;;13.20;5.43;;;11.80;99.10;;;;;;5085127;28;20220;-79
2022/05/13 07:22:40;;;;;;;6.70;3.53;;;11.90;99.00;;;;;;5081077;28;20237;-79
2022/05/13 07:25:08;;;;;;;6.43;3.40;;;12.00;98.70;;;;;;5083929;28;20233;-79
2022/05/13 07:27:34;;;;;;;8.07;3.03;;;12.00;98.60;;;;;;5086650;28;20734;-79
2022/05/13 07:30:01;;;;;;;8.50;3.17;;;12.00;98.60;;;;;;5080828;28;20223;-79
2022/05/13 07:32:28;;;;;;;8.03;2.93;;;12.00;98.60;;;;;;5086226;28;20224;-78
2022/05/13 07:34:56;;;;;;;11.13;3.60;;;12.10;98.40;;;;;;5085908;28;20271;-79
2022/05/13 07:37:22;;;;;;;10.33;3.40;;;12.10;98.40;;;;;;5084947;28;20223;-79
2022/05/13 07:42:33;;;;;;;6.40;3.20;;;12.10;98.40;;;;;;5081572;28;20704;-79
2022/05/13 07:45:00;;;;;;;8.07;3.80;;;12.20;98.20;;;;;;5072735;28;20993;-78
2022/05/13 07:47:27;;;;;;;10.00;3.77;;;12.20;98.10;;;;;;5085684;28;22569;-78
2022/05/13 07:49:54;;;;;;;13.03;3.57;;;12.30;98.20;;;;;;5087211;28;20269;-79
2022/05/13 07:52:24;;;;;;;9.17;3.17;;;12.30;98.20;;;;;;5082042;28;20234;-79
2022/05/13 07:54:54;;;;;;;7.50;3.33;;;12.40;98.00;;;;;;5079336;28;20721;-79
2022/05/13 07:57:20;;;;;;;8.93;3.37;;;12.50;98.00;;;;;;5078339;28;20367;-79
2022/05/13 08:02:40;;;;;;;9.70;3.50;;;12.70;97.70;;;;;;5070751;28;20223;-79
2022/05/13 08:05:08;;;;;;;11.73;3.77;;;12.80;97.40;;;;;;5074586;28;20234;-79
2022/05/13 08:07:37;;;;;;;8.77;3.80;;;12.80;97.30;;;;;;5080399;28;20232;-79
2022/05/13 08:10:04;;;;;;;6.40;3.80;;;12.80;97.30;;;;;;5079074;28;20226;-79
2022/05/13 08:12:31;;;;;;;8.03;3.83;;;12.90;97.20;;;;;;5080806;28;20304;-80
2022/05/13 08:14:58;;;;;;;8.43;3.80;;;12.90;97.10;;;;;;5081177;28;20215;-79
2022/05/13 08:17:25;;;;;;;11.20;4.40;;;13.00;97.20;;;;;;5083694;28;20236;-79
2022/05/13 08:19:51;;;;;;;10.63;3.97;;;13.00;97.10;;;;;;5087062;28;20219;-78
2022/05/13 08:22:18;;;;;;;9.23;3.70;;;13.10;97.10;;;;;;5084494;28;20716;-80
2022/05/13 08:24:46;;;;;;;7.07;3.93;;;13.20;97.10;;;;;;5077379;28;20232;-80
2022/05/13 08:27:13;;;;;;;8.73;4.07;;;13.30;96.90;;;;;;5082514;28;20217;-79
2022/05/13 08:29:39;;;;;;;10.43;4.30;;;13.40;96.80;;;;;;5082004;28;20228;-80
2022/05/13 08:32:06;;;;;;;11.60;4.00;;;13.50;96.60;;;;;;5077533;28;20823;-80
2022/05/13 08:34:34;;;;;;;10.70;4.20;;;13.70;96.40;;;;;;5093951;28;20237;-80
2022/05/13 08:37:01;;;;;;;9.23;4.03;;;13.70;96.20;;;;;;5084155;28;20219;-80
2022/05/13 08:39:27;;;;;;;10.17;4.40;;;13.80;96.00;;;;;;5086273;28;20247;-79
2022/05/13 08:42:13;;;;;;;11.43;4.43;;;13.90;96.00;;;;;;5073455;28;20257;-80
2022/05/13 08:44:40;;;;;;;9.07;4.23;;;14.00;95.70;;;;;;5084453;28;20251;-80
2022/05/13 08:47:13;;;;;;;10.87;4.27;;;14.10;96.00;;;;;;5082091;28;20210;-80
2022/05/13 08:49:47;;;;;;;11.23;4.43;;;14.20;95.60;;;;;;5082089;28;20232;-80
2022/05/13 08:55:14;;;;;;;11.03;4.20;;;14.30;95.20;;;;;;5078164;28;20820;-79
2022/05/13 08:57:45;;;;;;;12.73;4.20;;;14.30;95.30;;;;;;5082359;28;20225;-79
2022/05/13 09:00:17;;;;;;;11.67;4.30;;;14.40;95.30;;;;;;5085083;28;20238;-79
2022/05/13 09:02:50;;;;;;;13.07;4.67;;;14.50;95.20;;;;;;5084648;28;20681;-79
2022/05/13 09:05:24;;;;;;;12.63;4.47;;;14.70;95.00;;;;;;5085526;28;20317;-79
2022/05/13 09:07:51;;;;;;;9.53;3.77;;;15.00;94.90;;;;;;5091367;28;20222;-79
2022/05/13 09:10:18;;;;;;;10.23;4.13;;;15.20;94.70;;;;;;5086681;28;20234;-78
2022/05/13 09:12:53;;;;;;;10.70;4.37;;;15.40;93.90;;;;;;5092515;28;20232;-79
2022/05/13 09:15:25;;;;;;;12.00;4.23;;;15.60;93.30;;;;;;5084839;28;20351;-79
2022/05/13 09:18:03;;;;;;;8.97;4.10;;;15.60;93.10;;;;;;5089119;28;20271;-79
2022/05/13 09:20:36;;;;;;;14.00;4.40;;;15.70;93.10;;;;;;5078773;28;20264;-79
2022/05/13 09:23:10;;;;;;;8.50;4.13;;;15.70;93.30;;;;;;5089782;28;20221;-79
2022/05/13 09:25:47;;;;;;;10.70;4.20;;;15.80;92.50;;;;;;5088008;28;20229;-79
2022/05/13 09:28:16;;;;;;;8.33;4.47;;;15.90;92.70;;;;;;5092927;28;20429;-79
2022/05/13 09:30:46;;;;;;;10.60;4.43;;;15.90;92.80;;;;;;5093295;28;20244;-79
2022/05/13 09:33:22;;;;;;;10.40;4.50;;;16.10;92.80;;;;;;5084736;28;20294;-79
2022/05/13 09:35:51;;;;;;;10.83;4.73;;;16.20;92.20;;;;;;5093255;28;20221;-79
2022/05/13 09:38:21;;;;;;;8.17;3.80;;;16.40;92.40;;;;;;5097443;27;20307;-79
2022/05/13 09:40:59;;;;;;;10.37;3.90;;;16.70;92.60;;;;;;5089043;28;20254;-79
2022/05/13 09:43:37;;;;;;;11.17;4.27;;;17.10;91.30;;;;;;5091972;28;20321;-79
2022/05/13 09:46:07;;;;;;;10.37;4.00;;;17.50;91.10;;;;;;5089364;28;20222;-79
2022/05/13 09:48:37;;;;;;;9.73;3.90;;;17.80;91.00;;;;;;5088893;28;20230;-79
2022/05/13 09:51:22;;;;;;;8.80;3.70;;;18.00;90.10;;;;;;5092703;28;20227;-79
2022/05/13 09:54:02;;;;;;;9.97;3.43;;;18.20;88.60;;;;;;5091076;28;20729;-79
2022/05/13 09:56:37;;;;;;;12.17;4.37;;;18.40;86.90;;;;;;5090240;28;20222;-79
2022/05/13 09:59:13;;;;;;;10.23;3.75;;;18.50;86.00;;;;;;5091159;28;20234;-79
2022/05/13 10:01:40;;;;;;;7.60;3.70;;;18.50;85.10;;;;;;5092386;28;20226;-79
2022/05/13 10:04:11;;;;;;;7.93;3.50;;;18.40;86.20;;;;;;5089675;28;20954;-79
2022/05/13 10:06:39;;;;;;;7.13;3.53;;;18.30;85.10;;;;;;5090454;28;20840;-79
2022/05/13 10:14:46;;;;;;;9.77;3.97;;;18.30;85.10;;;;;;5083521;28;20227;-79
2022/05/13 10:17:16;;;;;;;8.10;4.03;;;18.30;85.20;;;;;;5086676;28;20427;-79
2022/05/13 10:19:46;;;;;;;9.43;3.40;;;18.30;85.00;;;;;;5086646;28;20228;-79
2022/05/13 10:22:21;;;;;;;7.13;3.77;;;18.30;85.10;;;;;;5088350;28;20225;-79
2022/05/13 10:24:52;;;;;;;9.23;3.77;;;18.20;84.40;;;;;;5079993;28;20718;-79
2022/05/13 10:27:26;;;;;;;9.87;3.47;;;18.10;84.80;;;;;;5082041;28;20541;-79
2022/05/13 10:30:00;;;;;;;8.70;4.60;;;18.10;84.70;;;;;;5089713;28;20231;-79
2022/05/13 10:32:34;;;;;;;13.00;3.53;;;18.20;84.10;;;;;;5082983;28;20242;-79
2022/05/13 10:35:08;;;;;;;7.83;3.47;;;18.40;84.70;;;;;;5084143;28;20329;-79
2022/05/13 10:37:46;;;;;;;9.83;4.43;;;18.60;84.20;;;;;;5092054;28;20333;-79
2022/05/13 10:40:18;;;;;;;8.00;3.40;;;18.60;83.80;;;;;;5084549;28;20210;-80
2022/05/13 10:42:49;;;;;;;9.40;3.87;;;18.60;83.50;;;;;;5083891;28;20215;-79
2022/05/13 10:45:20;;;;;;;10.83;4.27;;;18.50;86.30;;;;;;5082975;28;20261;-82
2022/05/13 10:47:51;;;;;;;7.03;3.20;;;18.20;88.50;;;;;;5080767;28;20637;-84
2022/05/13 10:50:20;;;;;;;5.67;2.47;;;17.70;89.50;;;;;;5082894;28;20230;-83
2022/05/13 10:52:55;;;;;;;6.40;1.93;;;17.20;90.40;;;;;;5086591;28;20239;-81
2022/05/13 10:55:30;;;;;;;4.30;2.13;;;16.50;91.60;;;;;;5080867;28;20235;-81
2022/05/13 10:58:11;;;;;;;5.80;2.43;;;16.00;92.60;;;;;;5088354;28;20235;-81
2022/05/13 11:00:46;;;;;;;4.90;2.70;;;15.40;94.90;;;;;;5095137;28;20219;-81
2022/05/13 11:03:31;;;;;;;9.13;2.53;;;15.00;97.10;;;;;;5084159;28;20591;-81
2022/05/13 11:06:10;;;;;;;13.33;3.70;;;14.80;98.90;;;;;;5089154;28;20275;-81
2022/05/13 11:08:50;;;;;;;8.00;3.03;;;14.80;99.90;;;;;;5086801;28;20251;-81
2022/05/13 11:11:37;;;;;;;113.23;9.87;;;14.90;99.90;;;;;;5082825;28;20833;-81
2022/05/13 11:14:13;;;;;;;93.73;9.23;;;15.10;99.90;;;;;;5080002;28;20274;-82
2022/05/13 11:16:50;;;;;;;8.23;3.30;;;15.30;99.90;;;;;;5085372;28;20314;-81
2022/05/13 11:19:25;;;;;;;5.77;2.73;;;15.60;99.90;;;;;;5079768;28;20257;-81
2022/05/13 11:21:58;;;;;;;6.60;3.20;;;15.90;99.90;;;;;;5091724;28;20855;-81
2022/05/13 11:27:31;;;;;;;6.67;3.70;;;16.20;99.90;;;;;;5076026;28;20312;-81
2022/05/13 11:30:02;;;;;;;8.70;4.13;;;16.30;99.80;;;;;;5085689;28;20237;-81
2022/05/13 11:32:39;;;;;;;6.80;3.80;;;16.60;99.90;;;;;;5084083;28;20233;-81
2022/05/13 11:35:19;;;;;;;6.17;3.53;;;16.90;99.90;;;;;;5083514;28;20301;-81
2022/05/13 11:37:51;;;;;;;7.33;3.33;;;17.20;99.90;;;;;;5083198;28;20297;-80
2022/05/13 11:40:26;;;;;;;6.07;3.40;;;17.50;98.80;;;;;;5085132;28;20261;-80
2022/05/13 11:43:25;;;;;;;5.73;3.23;;;17.70;98.00;;;;;;5080598;28;20300;-80
2022/05/13 11:46:22;;;;;;;7.37;3.10;;;17.80;96.40;;;;;;5081758;28;20214;-81
2022/05/13 11:48:52;;;;;;;5.00;2.57;;;17.80;96.30;;;;;;5084326;28;20233;-81
2022/05/13 11:51:21;;;;;;;5.93;2.83;;;17.80;96.10;;;;;;5081664;28;20265;-80
2022/05/13 11:53:52;;;;;;;5.00;2.23;;;17.80;97.00;;;;;;5082798;28;20230;-80
2022/05/13 11:56:34;;;;;;;6.60;2.13;;;17.90;96.60;;;;;;5082940;28;20223;-79
2022/05/13 11:59:40;;;;;;;5.57;2.13;;;18.00;94.80;;;;;;5076778;28;20214;-80
2022/05/13 12:02:30;;;;;;;6.43;2.60;;;18.20;94.20;;;;;;5053770;28;20218;-80
2022/05/13 12:05:27;;;;;;;5.73;2.40;;;18.40;93.20;;;;;;5081749;28;20211;-80
2022/05/13 12:08:07;;;;;;;7.07;2.50;;;18.30;92.50;;;;;;5084861;28;20313;-79
2022/05/13 12:10:55;;;;;;;6.37;2.60;;;18.00;91.50;;;;;;5075356;28;22230;-79
2022/05/13 12:13:33;;;;;;;6.53;2.43;;;17.80;92.00;;;;;;5083297;28;20226;-79
2022/05/13 12:16:29;;;;;;;4.40;2.80;;;17.50;92.40;;;;;;5076587;28;20223;-78
2022/05/13 12:19:18;;;;;;;7.20;2.10;;;17.40;93.20;;;;;;5078263;28;20221;-78
2022/05/13 12:21:56;;;;;;;4.37;1.83;;;17.40;94.20;;;;;;5077913;28;20248;-78
2022/05/13 12:24:24;;;;;;;6.40;2.43;;;17.60;94.10;;;;;;5077679;28;20626;-79
2022/05/13 12:27:13;;;;;;;5.43;2.10;;;17.90;93.20;;;;;;5096135;28;20251;-79
2022/05/13 12:29:45;;;;;;;5.30;2.08;;;18.20;92.30;;;;;;5080707;28;20227;-78
2022/05/13 12:32:21;;;;;;;3.95;2.10;;;18.60;92.30;;;;;;5081728;28;20226;-79
2022/05/13 12:38:14;;;;;;;6.95;2.58;;;19.20;90.70;;;;;;5079523;28;20303;-79
2022/05/13 12:41:01;;;;;;;7.25;2.67;;;19.40;89.50;;;;;;5053421;28;20689;-78
2022/05/13 12:43:55;;;;;;;4.93;2.13;;;19.60;89.30;;;;;;5077264;28;20226;-79
2022/05/13 12:46:40;;;;;;;6.15;2.00;;;19.60;90.00;;;;;;5085647;27;20229;-79
2022/05/13 12:49:12;;;;;;;4.07;1.92;;;19.70;88.50;;;;;;5077567;28;20601;-79
2022/05/13 12:51:59;;;;;;;3.78;1.45;;;19.70;87.40;;;;;;5081330;28;20314;-78
2022/05/13 12:54:32;;;;;;;2.70;1.42;;;19.70;85.40;;;;;;5069971;28;20227;-79
2022/05/13 12:57:19;;;;;;;5.10;1.77;;;19.60;84.80;;;;;;5078436;28;20231;-79
2022/05/13 12:59:52;;;;;;;3.42;1.65;;;19.60;85.00;;;;;;5065158;28;20660;-78
2022/05/13 13:02:22;;;;;;;3.60;1.43;;;19.50;82.90;;;;;;5077364;28;20329;-78
2022/05/13 13:04:54;;;;;;;5.28;1.75;;;19.40;82.80;;;;;;5079696;28;20221;-78
2022/05/13 13:07:26;;;;;;;5.03;2.28;;;19.20;82.60;;;;;;5080552;28;20300;-79
2022/05/13 13:09:54;;;;;;;5.00;2.40;;;19.00;84.20;;;;;;5077439;28;20226;-78
2022/05/13 13:12:26;;;;;;;3.30;2.20;;;18.70;86.70;;;;;;5078297;28;20231;-78
2022/05/13 13:14:57;;;;;;;5.13;2.10;;;18.40;90.10;;;;;;5073458;28;20234;-78
2022/05/13 13:17:32;;;;;;;4.50;2.30;;;18.10;91.10;;;;;;5081302;28;20246;-78
2022/05/13 13:20:01;;;;;;;6.13;2.23;;;17.90;91.50;;;;;;5075941;28;20222;-79
2022/05/13 13:22:33;;;;;;;3.77;1.93;;;17.70;91.10;;;;;;5078081;28;20222;-78
2022/05/13 13:25:08;;;;;;;3.67;1.73;;;17.60;90.50;;;;;;5076754;28;20214;-78
2022/05/13 13:27:34;;;;;;;5.73;2.17;;;17.40;90.80;;;;;;5079511;28;20638;-78
2022/05/13 13:30:03;;;;;;;4.87;1.83;;;17.30;91.10;;;;;;5080161;28;20233;-78
2022/05/13 13:32:30;;;;;;;4.10;1.80;;;17.20;91.00;;;;;;5096595;28;20227;-77
2022/05/13 13:34:59;;;;;;;3.47;1.80;;;17.10;91.00;;;;;;5075575;28;20245;-78
2022/05/13 13:37:28;;;;;;;4.93;1.90;;;17.00;90.80;;;;;;5077379;28;20421;-77
2022/05/13 13:39:56;;;;;;;10.87;2.17;;;16.90;90.50;;;;;;5080283;28;20250;-78
2022/05/13 13:42:33;;;;;;;4.93;1.70;;;16.90;90.30;;;;;;5078112;28;20241;-78
2022/05/13 13:45:10;;;;;;;5.13;1.90;;;17.00;89.80;;;;;;5080404;28;21088;-78
2022/05/13 13:47:41;;;;;;;4.57;2.03;;;17.00;89.70;;;;;;5082760;28;20230;-77
2022/05/13 13:50:12;;;;;;;4.87;1.40;;;17.10;89.10;;;;;;5071770;28;20222;-78